createdAt,value
2022-09-28T00:01:18.201Z,98180.66
2022-09-28T00:03:49.159Z,98179.78
2022-09-28T00:06:20.905Z,98179.78
2022-09-28T00:08:50.067Z,98176.31
2022-09-28T00:11:20.541Z,98176.31
2022-09-28T00:13:51.325Z,98175.44
2022-09-28T00:16:21.469Z,98165.00
2022-09-28T00:18:51.443Z,98174.59
2022-09-28T00:21:22.646Z,98175.44
2022-09-28T00:24:11.362Z,98173.72
2022-09-28T00:26:41.590Z,98172.81
2022-09-28T00:29:17.112Z,98166.75
2022-09-28T00:31:45.804Z,98168.50
2022-09-28T00:34:15.850Z,98168.47
2022-09-28T00:36:46.114Z,98174.59
2022-09-28T00:39:16.266Z,98165.88
2022-09-28T00:41:45.617Z,98166.75
2022-09-28T00:44:50.039Z,98168.50
2022-09-28T00:47:39.131Z,98171.97
2022-09-28T00:50:15.488Z,98156.31
2022-09-28T00:52:50.026Z,98148.47
2022-09-28T00:55:21.831Z,98151.09
2022-09-28T00:57:55.158Z,98151.94
2022-09-28T01:00:23.847Z,98147.59
2022-09-28T01:02:52.729Z,98151.97
2022-09-28T01:05:25.205Z,98140.63
2022-09-28T01:07:55.409Z,98144.97
2022-09-28T01:10:23.906Z,98149.34
2022-09-28T01:12:52.179Z,98151.06
2022-09-28T01:15:22.749Z,98151.06
2022-09-28T01:18:01.591Z,98154.56
2022-09-28T01:20:55.784Z,98147.59
2022-09-28T01:24:11.981Z,98143.25
2022-09-28T01:26:51.899Z,98145.84
2022-09-28T01:29:58.547Z,98145.84
2022-09-28T01:32:35.798Z,98145.88
2022-09-28T01:35:08.933Z,98139.78
2022-09-28T01:37:46.433Z,98152.81
2022-09-28T01:40:16.791Z,98147.56
2022-09-28T01:42:54.369Z,98140.63
2022-09-28T01:45:27.336Z,98142.38
2022-09-28T01:48:01.022Z,98142.38
2022-09-28T01:50:34.945Z,98145.88
2022-09-28T01:53:09.239Z,98140.63
2022-09-28T01:55:42.714Z,98147.56
2022-09-28T01:58:16.011Z,98143.25
2022-09-28T02:00:50.181Z,98144.97
2022-09-28T02:03:22.970Z,98137.16
2022-09-28T02:06:00.910Z,98137.16
2022-09-28T02:08:34.492Z,98134.53
2022-09-28T02:11:07.289Z,98139.75
2022-09-28T02:13:40.916Z,98137.16
2022-09-28T02:16:17.318Z,98128.44
2022-09-28T02:18:47.002Z,98127.56
2022-09-28T02:21:23.906Z,98123.25
2022-09-28T02:23:57.598Z,98141.50
2022-09-28T02:26:32.508Z,98134.53
2022-09-28T02:29:02.261Z,98135.38
2022-09-28T02:31:31.698Z,98131.03
2022-09-28T02:34:00.314Z,98138.00
2022-09-28T02:36:29.962Z,98132.78
2022-09-28T02:39:02.187Z,98146.69
2022-09-28T02:41:48.538Z,98139.75
2022-09-28T02:44:35.908Z,98144.09
2022-09-28T02:47:11.498Z,98151.06
2022-09-28T02:49:50.327Z,98143.22
2022-09-28T02:52:37.774Z,98144.97
2022-09-28T02:55:21.224Z,98137.16
2022-09-28T02:58:04.605Z,98138.03
2022-09-28T03:00:42.034Z,98149.31
2022-09-28T03:03:19.024Z,98141.50
2022-09-28T03:05:54.924Z,98144.97
2022-09-28T03:08:27.321Z,98146.72
2022-09-28T03:10:59.786Z,98144.97
2022-09-28T03:13:29.550Z,98148.47
2022-09-28T03:16:10.296Z,98138.88
2022-09-28T03:18:39.142Z,98146.72
2022-09-28T03:21:08.070Z,98148.44
2022-09-28T03:23:36.339Z,98144.09
2022-09-28T03:26:04.853Z,98157.16
2022-09-28T03:28:35.645Z,98147.59
2022-09-28T03:31:04.587Z,98148.44
2022-09-28T03:33:34.332Z,98153.66
2022-09-28T03:36:02.814Z,98151.06
2022-09-28T03:38:31.656Z,98156.28
2022-09-28T03:41:01.783Z,98158.91
2022-09-28T03:43:36.302Z,98153.66
2022-09-28T03:46:05.521Z,98160.63
2022-09-28T03:48:41.783Z,98151.94
2022-09-28T03:51:13.085Z,98152.78
2022-09-28T03:53:41.615Z,98154.50
2022-09-28T03:56:13.547Z,98151.06
2022-09-28T03:58:43.271Z,98151.06
2022-09-28T04:01:17.724Z,98151.91
2022-09-28T04:03:55.006Z,98148.44
2022-09-28T04:06:24.255Z,98150.19
2022-09-28T04:08:52.888Z,98151.06
2022-09-28T04:11:21.329Z,98153.66
2022-09-28T04:13:50.460Z,98156.28
2022-09-28T04:16:19.381Z,98152.78
2022-09-28T04:19:06.752Z,98150.19
2022-09-28T04:21:51.847Z,98144.97
2022-09-28T04:24:21.361Z,98151.91
2022-09-28T04:26:49.667Z,98160.59
2022-09-28T04:29:18.976Z,98154.53
2022-09-28T04:32:07.053Z,98158.00
2022-09-28T04:34:43.752Z,98160.59
2022-09-28T04:37:12.675Z,98157.13
2022-09-28T04:39:45.008Z,98151.03
2022-09-28T04:42:14.804Z,98151.03
2022-09-28T04:44:43.081Z,98154.50
2022-09-28T04:47:11.457Z,98154.53
2022-09-28T04:50:19.294Z,98152.78
2022-09-28T04:53:06.061Z,98149.31
2022-09-28T04:55:34.406Z,98147.56
2022-09-28T04:58:05.278Z,98151.06
2022-09-28T05:00:35.510Z,98151.91
2022-09-28T05:03:23.605Z,98152.78
2022-09-28T05:06:17.070Z,98151.06
2022-09-28T05:08:47.739Z,98151.06
2022-09-28T05:11:18.288Z,98152.78
2022-09-28T05:13:48.418Z,98142.34
2022-09-28T05:16:18.173Z,98155.38
2022-09-28T05:19:06.153Z,98156.28
2022-09-28T05:21:35.903Z,98155.41
2022-09-28T05:24:07.423Z,98160.63
2022-09-28T05:26:37.573Z,98156.28
2022-09-28T05:29:07.403Z,98157.13
2022-09-28T05:31:54.077Z,98155.41
2022-09-28T05:34:42.686Z,98150.19
2022-09-28T05:37:17.145Z,98151.06
2022-09-28T05:39:46.725Z,98145.84
2022-09-28T05:42:15.049Z,98154.53
2022-09-28T05:44:44.438Z,98143.25
2022-09-28T05:47:13.615Z,98148.44
2022-09-28T05:49:42.461Z,98151.03
2022-09-28T05:52:10.982Z,98158.03
2022-09-28T05:54:42.357Z,98158.03
2022-09-28T05:57:10.861Z,98156.28
2022-09-28T05:59:39.098Z,98163.25
2022-09-28T06:02:07.961Z,98155.41
2022-09-28T06:04:36.293Z,98162.38
2022-09-28T06:07:04.564Z,98160.63
2022-09-28T06:09:32.892Z,98165.84
2022-09-28T06:12:21.513Z,98171.06
2022-09-28T06:14:52.141Z,98168.47
2022-09-28T06:17:20.437Z,98173.69
2022-09-28T06:19:55.375Z,98177.16
2022-09-28T06:22:53.197Z,98190.22
2022-09-28T06:25:22.595Z,98180.63
2022-09-28T06:27:59.733Z,98179.75
2022-09-28T06:30:29.755Z,98198.03
2022-09-28T06:33:00.326Z,98196.28
2022-09-28T06:35:31.038Z,98198.00
2022-09-28T06:38:00.481Z,98199.78
2022-09-28T06:40:30.110Z,98203.22
2022-09-28T06:43:01.833Z,98215.41
2022-09-28T06:45:52.486Z,98204.94
2022-09-28T06:48:54.501Z,98202.38
2022-09-28T06:51:42.708Z,98211.06
2022-09-28T06:54:20.155Z,98213.66
2022-09-28T06:56:51.930Z,98212.81
2022-09-28T06:59:22.452Z,98224.09
2022-09-28T07:01:50.898Z,98219.78
2022-09-28T07:04:42.673Z,98221.50
2022-09-28T07:07:28.123Z,98225.00
2022-09-28T07:10:03.234Z,98231.06
2022-09-28T07:12:47.724Z,98233.66
2022-09-28T07:15:27.265Z,98238.88
2022-09-28T07:18:02.520Z,98238.03
2022-09-28T07:20:40.024Z,98239.75
2022-09-28T07:23:19.681Z,98242.38
2022-09-28T07:26:09.059Z,98243.25
2022-09-28T07:29:10.903Z,98243.25
2022-09-28T07:31:46.179Z,98250.22
2022-09-28T07:34:39.884Z,98254.53
2022-09-28T07:37:13.821Z,98250.19
2022-09-28T07:40:00.138Z,98252.81
2022-09-28T07:42:30.855Z,98251.94
2022-09-28T07:44:59.313Z,98259.75
2022-09-28T07:47:34.673Z,98264.13
2022-09-28T07:50:30.086Z,98271.94
2022-09-28T07:53:17.073Z,98264.13
2022-09-28T07:56:10.285Z,98274.56
2022-09-28T07:58:44.780Z,98268.47
2022-09-28T08:01:45.476Z,98274.59
2022-09-28T08:04:17.018Z,98272.88
2022-09-28T08:06:48.271Z,98274.59
2022-09-28T08:09:16.832Z,98284.19
2022-09-28T08:12:05.029Z,98278.97
2022-09-28T08:14:47.009Z,98285.94
2022-09-28T08:17:38.858Z,98289.44
2022-09-28T08:20:28.559Z,98291.19
2022-09-28T08:22:56.859Z,98289.44
2022-09-28T08:25:25.365Z,98286.84
2022-09-28T08:27:56.208Z,98299.06
2022-09-28T08:30:25.177Z,98298.16
2022-09-28T08:33:03.801Z,98299.06
2022-09-28T08:35:46.759Z,98303.41
2022-09-28T08:38:18.823Z,98307.78
2022-09-28T08:41:16.338Z,98311.25
2022-09-28T08:44:12.485Z,98306.06
2022-09-28T08:47:02.306Z,98306.91
2022-09-28T08:49:48.059Z,98319.13
2022-09-28T08:52:38.087Z,98312.16
2022-09-28T08:55:16.338Z,98321.75
2022-09-28T08:57:53.587Z,98325.22
2022-09-28T09:00:30.685Z,98326.97
2022-09-28T09:02:59.296Z,98321.75
2022-09-28T09:05:47.999Z,98327.84
2022-09-28T09:08:34.041Z,98328.72
2022-09-28T09:11:13.011Z,98328.72
2022-09-28T09:14:10.421Z,98330.47
2022-09-28T09:16:51.224Z,98340.91
2022-09-28T09:19:46.643Z,98329.56
2022-09-28T09:22:58.559Z,98338.31
2022-09-28T09:25:38.425Z,98340.91
2022-09-28T09:28:43.622Z,98344.38
2022-09-28T09:31:27.117Z,98347.88
2022-09-28T09:34:13.090Z,98346.13
2022-09-28T09:37:04.838Z,98347.91
2022-09-28T09:40:34.659Z,98344.38
2022-09-28T09:43:59.904Z,98353.97
2022-09-28T09:46:54.792Z,98358.38
2022-09-28T09:49:44.523Z,98360.13
2022-09-28T09:52:19.923Z,98364.47
2022-09-28T09:54:55.199Z,98360.13
2022-09-28T09:57:46.685Z,98363.63
2022-09-28T10:00:33.106Z,98368.84
2022-09-28T10:03:22.367Z,98365.34
2022-09-28T10:05:57.368Z,98361.00
2022-09-28T10:08:26.637Z,98363.63
2022-09-28T10:11:07.586Z,98363.63
2022-09-28T10:13:41.076Z,98361.84
2022-09-28T10:16:30.658Z,98363.59
2022-09-28T10:19:01.948Z,98361.84
2022-09-28T10:22:02.093Z,98360.97
2022-09-28T10:24:35.255Z,98365.31
2022-09-28T10:27:09.433Z,98360.09
2022-09-28T10:29:50.713Z,98372.28
2022-09-28T10:32:21.474Z,98363.59
2022-09-28T10:34:51.309Z,98363.56
2022-09-28T10:37:24.247Z,98364.44
2022-09-28T10:40:34.108Z,98360.06
2022-09-28T10:43:03.967Z,98367.03
2022-09-28T10:45:37.156Z,98376.59
2022-09-28T10:48:15.070Z,98380.09
2022-09-28T10:50:44.482Z,98368.75
2022-09-28T10:53:20.476Z,98368.72
2022-09-28T10:56:06.028Z,98361.72
2022-09-28T10:58:39.705Z,98358.19
2022-09-28T11:01:16.831Z,98366.91
2022-09-28T11:03:56.444Z,98359.03
2022-09-28T11:06:27.305Z,98365.09
2022-09-28T11:08:58.814Z,98363.34
2022-09-28T11:11:29.371Z,98370.34
2022-09-28T11:14:04.356Z,98357.22
2022-09-28T11:16:39.161Z,98369.47
2022-09-28T11:19:28.546Z,98366.84
2022-09-28T11:21:56.907Z,98372.09
2022-09-28T11:24:33.925Z,98365.97
2022-09-28T11:27:05.166Z,98368.59
2022-09-28T11:29:38.534Z,98367.72
2022-09-28T11:32:40.422Z,98371.22
2022-09-28T11:35:24.635Z,98365.97
2022-09-28T11:38:07.258Z,98375.53
2022-09-28T11:41:02.050Z,98375.50
2022-09-28T11:43:50.269Z,98365.84
2022-09-28T11:46:28.454Z,98375.44
2022-09-28T11:49:11.952Z,98374.53
2022-09-28T11:51:44.619Z,98366.63
2022-09-28T11:54:21.060Z,98371.00
2022-09-28T11:56:51.472Z,98366.63
2022-09-28T11:59:27.490Z,98367.44
2022-09-28T12:01:59.277Z,98363.91
2022-09-28T12:05:20.843Z,98360.44
2022-09-28T12:07:55.074Z,98362.16
2022-09-28T12:10:57.031Z,98370.03
2022-09-28T12:13:48.686Z,98379.63
2022-09-28T12:19:18.966Z,98370.00
2022-09-28T12:21:52.186Z,98366.50
2022-09-28T12:24:25.981Z,98359.44
2022-09-28T12:26:59.241Z,98354.97
2022-09-28T12:29:33.194Z,98353.16
2022-09-28T12:32:10.794Z,98353.13
2022-09-28T12:34:41.733Z,98363.59
2022-09-28T12:37:30.538Z,98367.91
2022-09-28T12:40:20.925Z,98360.91
2022-09-28T12:43:26.329Z,98353.91
2022-09-28T12:46:12.027Z,98357.44
2022-09-28T12:49:24.391Z,98359.19
2022-09-28T12:51:49.788Z,98360.97
2022-09-28T12:54:35.001Z,98359.22
2022-09-28T12:57:15.492Z,98361.00
2022-09-28T13:00:01.700Z,98372.34
2022-09-28T13:02:58.482Z,98366.25
2022-09-28T13:05:56.760Z,98358.38
2022-09-28T13:08:35.622Z,98364.44
2022-09-28T13:11:16.530Z,98360.84
2022-09-28T13:13:52.971Z,98357.25
2022-09-28T13:16:28.134Z,98350.06
2022-09-28T13:19:03.132Z,98349.03
2022-09-28T13:21:42.006Z,98358.50
2022-09-28T13:24:31.554Z,98349.63
2022-09-28T13:27:08.409Z,98344.97
2022-09-28T13:32:12.454Z,98335.38
2022-09-28T13:34:41.008Z,98334.16
2022-09-28T13:37:21.664Z,98333.91
2022-09-28T13:39:52.898Z,98332.00
2022-09-28T13:42:41.725Z,98334.50
2022-09-28T13:45:32.274Z,98325.56
2022-09-28T13:48:20.551Z,98330.75
2022-09-28T13:51:25.727Z,98329.69
2022-09-28T13:54:17.165Z,98336.34
2022-09-28T13:56:52.454Z,98336.03
2022-09-28T13:59:27.149Z,98331.31
2022-09-28T14:02:06.860Z,98333.50
2022-09-28T14:04:57.338Z,98332.28
2022-09-28T14:10:20.424Z,98336.66
2022-09-28T14:12:51.312Z,98335.97
2022-09-28T14:15:45.026Z,98339.69
2022-09-28T14:18:24.406Z,98338.28
2022-09-28T14:21:14.427Z,98338.59
2022-09-28T14:24:14.735Z,98341.59
2022-09-28T14:27:07.598Z,98348.81
2022-09-28T14:29:38.212Z,98345.38
2022-09-28T14:32:24.422Z,98347.19
2022-09-28T14:35:03.630Z,98345.53
2022-09-28T14:37:51.902Z,98356.25
2022-09-28T14:40:40.670Z,98359.91
2022-09-28T14:43:36.640Z,98357.47
2022-09-28T14:46:31.120Z,98354.97
2022-09-28T14:49:03.557Z,98356.81
2022-09-28T14:52:07.652Z,98349.84
2022-09-28T14:54:48.987Z,98362.25
2022-09-28T14:57:20.571Z,98360.69
2022-09-28T14:59:49.468Z,98376.59
2022-09-28T15:02:32.925Z,98369.72
2022-09-28T15:05:14.902Z,98383.03
2022-09-28T15:07:47.442Z,98384.03
2022-09-28T15:10:27.673Z,98389.38
2022-09-28T15:12:57.603Z,98388.56
2022-09-28T15:15:30.911Z,98398.28
2022-09-28T15:18:13.772Z,98400.16
2022-09-28T15:20:47.709Z,98408.13
2022-09-28T15:23:28.350Z,98402.94
2022-09-28T15:25:57.323Z,98414.41
2022-09-28T15:28:25.655Z,98413.63
2022-09-28T15:31:02.514Z,98420.72
2022-09-28T15:33:49.916Z,98413.84
2022-09-28T15:36:23.062Z,98424.41
2022-09-28T15:38:58.142Z,98417.50
2022-09-28T15:41:27.358Z,98422.81
2022-09-28T15:44:23.439Z,98421.13
2022-09-28T15:47:04.302Z,98418.53
2022-09-28T15:49:39.248Z,98424.75
2022-09-28T15:52:23.018Z,98417.78
2022-09-28T15:54:51.722Z,98425.72
2022-09-28T15:57:44.097Z,98433.63
2022-09-28T16:00:26.353Z,98442.44
2022-09-28T16:03:00.330Z,98446.03
2022-09-28T16:05:42.439Z,98450.38
2022-09-28T16:08:21.359Z,98452.19
2022-09-28T16:11:00.729Z,98454.78
2022-09-28T16:13:29.214Z,98453.09
2022-09-28T16:15:59.621Z,98454.00
2022-09-28T16:18:30.151Z,98465.38
2022-09-28T16:21:22.375Z,98461.06
2022-09-28T16:23:55.613Z,98471.53
2022-09-28T16:26:32.338Z,98475.06
2022-09-28T16:29:02.006Z,98475.94
2022-09-28T16:31:33.619Z,98477.72
2022-09-28T16:34:11.861Z,98475.97
2022-09-28T16:36:45.205Z,98479.50
2022-09-28T16:39:16.274Z,98471.66
2022-09-28T16:41:49.496Z,98475.16
2022-09-28T16:44:25.756Z,98480.41
2022-09-28T16:46:56.830Z,98483.88
2022-09-28T16:49:26.805Z,98482.16
2022-09-28T16:51:55.263Z,98484.78
2022-09-28T16:54:58.297Z,98482.16
2022-09-28T16:57:26.633Z,98490.00
2022-09-28T16:59:54.957Z,98486.50
2022-09-28T17:05:15.778Z,98495.28
2022-09-28T17:07:45.445Z,98492.63
2022-09-28T17:10:19.198Z,98492.63
2022-09-28T17:12:47.630Z,98499.63
2022-09-28T17:15:19.583Z,98497.00
2022-09-28T17:17:49.246Z,98496.13
2022-09-28T17:20:22.334Z,98494.38
2022-09-28T17:22:50.909Z,98491.78
2022-09-28T17:25:21.130Z,98495.25
2022-09-28T17:27:50.397Z,98501.34
2022-09-28T17:30:23.505Z,98496.13
2022-09-28T17:32:53.414Z,98486.50
2022-09-28T17:35:24.596Z,98492.66
2022-09-28T17:37:54.209Z,98490.00
2022-09-28T17:40:28.117Z,98490.88
2022-09-28T17:42:57.819Z,98489.16
2022-09-28T17:45:28.535Z,98492.66
2022-09-28T17:48:00.668Z,98496.97
2022-09-28T17:50:32.375Z,98490.03
2022-09-28T17:53:05.786Z,98492.63
2022-09-28T17:55:37.019Z,98490.88
2022-09-28T17:58:15.999Z,98498.72
2022-09-28T18:00:45.035Z,98490.91
2022-09-28T18:03:16.457Z,98494.38
2022-09-28T18:05:45.666Z,98490.88
2022-09-28T18:08:16.593Z,98500.47
2022-09-28T18:10:46.842Z,98508.31
2022-09-28T18:13:15.634Z,98508.31
2022-09-28T18:15:44.473Z,98506.56
2022-09-28T18:18:12.936Z,98510.06
2022-09-28T18:20:41.934Z,98504.81
2022-09-28T18:23:10.214Z,98508.28
2022-09-28T18:25:40.723Z,98510.03
2022-09-28T18:28:10.940Z,98519.56
2022-09-28T18:30:41.217Z,98529.19
2022-09-28T18:33:10.202Z,98517.81
2022-09-28T18:35:38.572Z,98521.31
2022-09-28T18:38:07.493Z,98522.19
2022-09-28T18:40:36.979Z,98524.78
2022-09-28T18:43:05.326Z,98530.00
2022-09-28T18:45:35.719Z,98523.91
2022-09-28T18:48:04.146Z,98529.13
2022-09-28T18:50:32.416Z,98525.66
2022-09-28T18:53:11.411Z,98529.13
2022-09-28T18:55:40.885Z,98529.09
2022-09-28T18:58:10.533Z,98525.63
2022-09-28T19:00:42.393Z,98531.69
2022-09-28T19:03:14.285Z,98540.41
2022-09-28T19:05:43.067Z,98543.00
2022-09-28T19:08:11.705Z,98542.09
2022-09-28T19:10:39.974Z,98542.97
2022-09-28T19:13:08.255Z,98540.31
2022-09-28T19:15:36.681Z,98537.72
2022-09-28T19:18:07.472Z,98549.88
2022-09-28T19:20:35.863Z,98546.41
2022-09-28T19:23:04.224Z,98548.13
2022-09-28T19:25:32.761Z,98553.34
2022-09-28T19:28:01.213Z,98546.34
2022-09-28T19:30:29.484Z,98549.81
2022-09-28T19:32:57.883Z,98547.19
2022-09-28T19:35:27.505Z,98553.28
2022-09-28T19:37:56.073Z,98555.84
2022-09-28T19:40:24.443Z,98556.69
2022-09-28T19:42:52.890Z,98559.31
2022-09-28T19:45:21.218Z,98561.91
2022-09-28T19:47:50.898Z,98560.16
2022-09-28T19:50:19.431Z,98562.72
2022-09-28T19:52:49.282Z,98561.84
2022-09-28T19:55:18.870Z,98567.03
2022-09-28T19:57:47.935Z,98570.47
2022-09-28T20:00:16.752Z,98576.56
2022-09-28T20:02:45.055Z,98579.13
2022-09-28T20:05:13.353Z,98583.50
2022-09-28T20:07:41.658Z,98577.38
2022-09-28T20:10:12.188Z,98582.59
2022-09-28T20:12:41.050Z,98583.47
2022-09-28T20:15:10.581Z,98585.16
2022-09-28T20:17:39.002Z,98586.88
2022-09-28T20:20:07.895Z,98587.72
2022-09-28T20:22:36.998Z,98583.34
2022-09-28T20:25:05.674Z,98585.06
2022-09-28T20:27:35.285Z,98575.50
2022-09-28T20:30:04.527Z,98580.69
2022-09-28T20:32:33.068Z,98585.00
2022-09-28T20:35:01.487Z,98594.53
2022-09-28T20:37:30.866Z,98591.06
2022-09-28T20:40:00.926Z,98593.63
2022-09-28T20:42:31.827Z,98589.25
2022-09-28T20:45:01.444Z,98592.69
2022-09-28T20:47:29.730Z,98591.84
2022-09-28T20:49:58.273Z,98589.19
2022-09-28T20:52:26.538Z,98587.44
2022-09-28T20:54:54.836Z,98590.91
2022-09-28T20:57:23.191Z,98590.88
2022-09-28T20:59:54.759Z,98595.19
2022-09-28T21:02:25.133Z,98594.28
2022-09-28T21:04:54.040Z,98597.72
2022-09-28T21:07:22.393Z,98589.03
2022-09-28T21:09:50.703Z,98594.19
2022-09-28T21:12:19.170Z,98598.53
2022-09-28T21:14:47.426Z,98596.78
2022-09-28T21:17:15.838Z,98591.50
2022-09-28T21:19:45.552Z,98594.97
2022-09-28T21:22:13.988Z,98601.03
2022-09-28T21:24:42.246Z,98600.13
2022-09-28T21:27:10.520Z,98600.97
2022-09-28T21:29:38.807Z,98600.09
2022-09-28T21:32:08.127Z,98604.41
2022-09-28T21:34:36.709Z,98607.88
2022-09-28T21:37:06.646Z,98603.50
2022-09-28T21:39:34.890Z,98600.88
2022-09-28T21:42:03.192Z,98604.31
2022-09-28T21:44:31.451Z,98605.16
2022-09-28T21:46:59.758Z,98606.91
2022-09-28T21:49:28.054Z,98614.69
2022-09-28T21:51:56.359Z,98600.75
2022-09-28T21:54:25.969Z,98604.22
2022-09-28T21:56:54.278Z,98607.66
2022-09-28T21:59:22.577Z,98609.41
2022-09-28T22:01:50.924Z,98610.25
2022-09-28T22:04:19.325Z,98608.47
2022-09-28T22:06:47.749Z,98608.44
2022-09-28T22:09:16.022Z,98605.81
2022-09-28T22:11:45.680Z,98608.38
2022-09-28T22:14:14.180Z,98607.50
2022-09-28T22:16:43.252Z,98607.47
2022-09-28T22:19:11.671Z,98607.44
2022-09-28T22:21:40.054Z,98610.00
2022-09-28T22:24:08.666Z,98607.34
2022-09-28T22:26:39.357Z,98606.47
2022-09-28T22:29:10.269Z,98609.06
2022-09-28T22:31:40.686Z,98614.28
2022-09-28T22:34:10.274Z,98609.03
2022-09-28T22:36:38.989Z,98616.81
2022-09-28T22:39:07.358Z,98608.09
2022-09-28T22:41:35.811Z,98620.25
2022-09-28T22:44:04.096Z,98615.91
2022-09-28T22:46:33.885Z,98617.63
2022-09-28T22:49:02.323Z,98612.38
2022-09-28T22:51:31.789Z,98614.09
2022-09-28T22:54:00.330Z,98614.09
2022-09-28T22:56:29.124Z,98610.59
2022-09-28T22:58:57.847Z,98610.59
2022-09-28T23:01:28.147Z,98612.31
2022-09-28T23:03:59.316Z,98615.78
2022-09-28T23:06:30.658Z,98615.72
2022-09-28T23:08:59.108Z,98610.50
2022-09-28T23:11:27.899Z,98609.59
2022-09-28T23:13:57.841Z,98619.19
2022-09-28T23:16:27.516Z,98607.00
2022-09-28T23:18:58.143Z,98614.84
2022-09-28T23:21:28.289Z,98603.56
2022-09-28T23:23:58.549Z,98608.75
2022-09-28T23:26:29.049Z,98613.09
2022-09-28T23:28:58.278Z,98614.00
2022-09-28T23:31:28.453Z,98615.78
2022-09-28T23:34:02.819Z,98613.16
2022-09-28T23:36:31.622Z,98608.84
2022-09-28T23:39:00.042Z,98609.72
2022-09-28T23:41:28.760Z,98608.00
2022-09-28T23:43:57.580Z,98611.47
2022-09-28T23:46:25.973Z,98609.72
2022-09-28T23:48:54.459Z,98621.06
2022-09-28T23:51:24.135Z,98614.09
2022-09-28T23:53:52.407Z,98613.22
2022-09-28T23:56:21.238Z,98616.72
2022-09-28T23:58:49.553Z,98619.31
